createdAt,value
2017-09-24T00:00:19.613Z,13.90
2017-09-24T00:02:47.014Z,11.13
2017-09-24T00:05:14.402Z,12.00
2017-09-24T00:07:41.811Z,10.40
2017-09-24T00:10:09.202Z,11.53
2017-09-24T00:12:36.626Z,11.87
2017-09-24T00:15:04.014Z,10.20
2017-09-24T00:17:31.416Z,12.50
2017-09-24T00:19:58.806Z,12.27
2017-09-24T00:22:26.214Z,11.03
2017-09-24T00:24:53.606Z,10.90
2017-09-24T00:27:20.991Z,9.20
2017-09-24T00:29:48.379Z,10.93
2017-09-24T00:32:15.771Z,9.70
2017-09-24T00:34:43.163Z,10.80
2017-09-24T00:37:10.559Z,9.67
2017-09-24T00:39:38.026Z,11.37
2017-09-24T00:42:05.419Z,12.73
2017-09-24T00:44:32.825Z,9.47
2017-09-24T00:47:00.201Z,9.57
2017-09-24T00:49:27.650Z,12.07
2017-09-24T00:51:55.106Z,8.97
2017-09-24T00:54:22.495Z,8.67
2017-09-24T00:56:49.881Z,7.80
2017-09-24T00:59:17.270Z,8.20
2017-09-24T01:01:44.658Z,8.63
2017-09-24T01:04:12.051Z,10.33
2017-09-24T01:06:39.435Z,7.90
2017-09-24T01:09:06.826Z,7.80
2017-09-24T01:11:34.210Z,9.17
2017-09-24T01:14:01.602Z,8.23
2017-09-24T01:16:28.986Z,9.00
2017-09-24T01:21:35.407Z,10.33
2017-09-24T01:24:02.797Z,15.30
2017-09-24T01:26:30.190Z,11.53
2017-09-24T01:28:57.584Z,9.53
2017-09-24T01:31:24.973Z,9.60
2017-09-24T01:33:52.366Z,14.67
2017-09-24T01:36:19.749Z,10.40
2017-09-24T01:38:47.142Z,10.00
2017-09-24T01:41:14.535Z,10.20
2017-09-24T01:43:41.934Z,10.23
2017-09-24T01:46:09.328Z,12.90
2017-09-24T01:48:36.723Z,19.60
2017-09-24T01:51:04.117Z,11.60
2017-09-24T01:53:31.502Z,14.07
2017-09-24T01:55:58.907Z,13.37
2017-09-24T01:58:26.298Z,10.70
2017-09-24T02:00:53.706Z,13.37
2017-09-24T02:03:21.179Z,13.53
2017-09-24T02:05:48.630Z,12.43
2017-09-24T02:08:16.035Z,13.90
2017-09-24T02:10:43.449Z,12.03
2017-09-24T02:13:10.846Z,10.67
2017-09-24T02:15:38.255Z,11.33
2017-09-24T02:18:05.642Z,12.33
2017-09-24T02:20:33.044Z,11.90
2017-09-24T02:23:00.439Z,13.60
2017-09-24T02:25:27.851Z,11.80
2017-09-24T02:27:55.239Z,13.70
2017-09-24T02:30:22.658Z,14.70
2017-09-24T02:32:50.051Z,14.93
2017-09-24T02:35:17.466Z,13.13
2017-09-24T02:37:44.858Z,10.67
2017-09-24T02:40:12.264Z,15.03
2017-09-24T02:42:39.656Z,16.13
2017-09-24T02:45:07.043Z,12.20
2017-09-24T02:47:34.545Z,14.03
2017-09-24T02:50:01.945Z,13.47
2017-09-24T02:55:04.342Z,14.10
2017-09-24T02:57:31.748Z,15.10
2017-09-24T02:59:59.138Z,12.97
2017-09-24T03:02:26.558Z,18.33
2017-09-24T03:04:53.950Z,11.47
2017-09-24T03:07:21.345Z,10.90
2017-09-24T03:09:48.743Z,14.37
2017-09-24T03:12:16.141Z,12.37
2017-09-24T03:14:43.530Z,16.47
2017-09-24T03:17:10.932Z,12.33
2017-09-24T03:19:38.327Z,13.97
2017-09-24T03:22:05.731Z,12.60
2017-09-24T03:24:33.130Z,13.10
2017-09-24T03:27:00.610Z,13.23
2017-09-24T03:29:28.062Z,12.53
2017-09-24T03:31:55.466Z,12.00
2017-09-24T03:34:22.895Z,11.97
2017-09-24T03:36:50.298Z,17.37
2017-09-24T03:39:17.695Z,15.50
2017-09-24T03:41:45.088Z,18.70
2017-09-24T03:44:12.498Z,16.27
2017-09-24T03:46:39.894Z,15.70
2017-09-24T03:49:07.962Z,15.80
2017-09-24T03:51:35.353Z,17.83
2017-09-24T03:54:02.756Z,18.57
2017-09-24T03:56:30.150Z,16.83
2017-09-24T03:58:57.551Z,14.97
2017-09-24T04:01:24.946Z,22.60
2017-09-24T04:03:52.355Z,16.37
2017-09-24T04:06:19.750Z,16.53
2017-09-24T04:08:47.153Z,17.40
2017-09-24T04:11:14.556Z,21.47
2017-09-24T04:13:41.962Z,16.57
2017-09-24T04:16:09.360Z,20.33
2017-09-24T04:18:36.762Z,18.03
2017-09-24T04:21:04.161Z,19.80
2017-09-24T04:23:31.569Z,25.83
2017-09-24T04:25:58.954Z,19.43
2017-09-24T04:28:26.367Z,19.67
2017-09-24T04:30:53.770Z,22.57
2017-09-24T04:33:21.165Z,18.27
2017-09-24T04:35:48.570Z,24.60
2017-09-24T04:38:15.974Z,27.77
2017-09-24T04:40:43.369Z,28.83
2017-09-24T04:43:10.767Z,28.20
2017-09-24T04:45:38.167Z,34.30
2017-09-24T04:48:05.554Z,30.10
2017-09-24T04:50:32.968Z,23.17
2017-09-24T04:53:00.359Z,29.63
2017-09-24T04:55:27.758Z,30.53
2017-09-24T04:57:55.154Z,26.70
2017-09-24T05:00:22.558Z,29.27
2017-09-24T05:02:49.985Z,30.33
2017-09-24T05:05:17.375Z,31.47
2017-09-24T05:07:44.771Z,32.40
2017-09-24T05:10:12.263Z,27.97
2017-09-24T05:12:39.654Z,29.73
2017-09-24T05:15:07.050Z,25.93
2017-09-24T05:17:34.442Z,26.70
2017-09-24T05:20:01.846Z,27.90
2017-09-24T05:22:29.244Z,34.20
2017-09-24T05:24:56.638Z,29.73
2017-09-24T05:27:24.157Z,29.70
2017-09-24T05:29:51.550Z,31.47
2017-09-24T05:32:19.058Z,30.13
2017-09-24T05:34:46.478Z,29.03
2017-09-24T05:37:13.871Z,29.23
2017-09-24T05:39:41.269Z,32.93
2017-09-24T05:42:08.745Z,30.23
2017-09-24T05:44:36.139Z,32.37
2017-09-24T05:47:03.554Z,35.10
2017-09-24T05:49:31.055Z,41.07
2017-09-24T05:51:58.463Z,38.73
2017-09-24T05:54:25.855Z,39.33
2017-09-24T05:56:53.258Z,32.67
2017-09-24T05:59:20.649Z,29.30
2017-09-24T06:01:48.055Z,32.10
2017-09-24T06:04:15.474Z,33.90
2017-09-24T06:06:42.879Z,32.43
2017-09-24T06:09:10.274Z,34.33
2017-09-24T06:11:37.677Z,34.23
2017-09-24T06:14:05.115Z,36.23
2017-09-24T06:16:32.528Z,31.83
2017-09-24T06:18:59.911Z,35.60
2017-09-24T06:21:27.315Z,39.20
2017-09-24T06:23:54.716Z,40.33
2017-09-24T06:26:22.120Z,40.97
2017-09-24T06:28:49.518Z,33.37
2017-09-24T06:31:16.922Z,36.73
2017-09-24T06:33:44.323Z,40.30
2017-09-24T06:36:11.738Z,44.30
2017-09-24T06:38:39.139Z,42.07
2017-09-24T06:41:06.634Z,33.73
2017-09-24T06:43:34.038Z,42.50
2017-09-24T06:46:01.440Z,36.17
2017-09-24T06:48:28.835Z,32.87
2017-09-24T06:50:56.229Z,30.53
2017-09-24T06:53:23.626Z,38.57
2017-09-24T06:55:51.018Z,37.63
2017-09-24T06:58:18.520Z,39.80
2017-09-24T07:00:45.914Z,35.93
2017-09-24T07:03:13.314Z,39.17
2017-09-24T07:05:40.706Z,43.33
2017-09-24T07:08:08.114Z,41.43
2017-09-24T07:10:35.511Z,38.80
2017-09-24T07:13:02.919Z,38.27
2017-09-24T07:15:30.319Z,50.23
2017-09-24T07:17:57.718Z,41.70
2017-09-24T07:20:25.219Z,46.43
2017-09-24T07:22:52.618Z,43.77
2017-09-24T07:25:20.028Z,46.30
2017-09-24T07:27:47.422Z,50.10
2017-09-24T07:30:14.815Z,57.37
2017-09-24T07:32:42.220Z,42.20
2017-09-24T07:35:09.602Z,49.67
2017-09-24T07:37:36.994Z,42.73
2017-09-24T07:40:04.405Z,43.10
2017-09-24T07:42:31.794Z,37.20
2017-09-24T07:44:59.208Z,39.30
2017-09-24T07:47:26.607Z,43.73
2017-09-24T07:49:54.086Z,43.93
2017-09-24T07:52:21.478Z,50.30
2017-09-24T07:54:48.887Z,44.20
2017-09-24T07:57:16.274Z,44.10
2017-09-24T07:59:43.683Z,46.30
2017-09-24T08:02:11.162Z,40.40
2017-09-24T08:04:38.570Z,47.87
2017-09-24T08:07:05.962Z,44.43
2017-09-24T08:09:33.368Z,48.30
2017-09-24T08:12:00.772Z,42.63
2017-09-24T08:14:28.184Z,58.30
2017-09-24T08:16:55.578Z,52.53
2017-09-24T08:19:22.983Z,42.37
2017-09-24T08:21:50.379Z,51.30
2017-09-24T08:24:17.780Z,45.70
2017-09-24T08:26:45.180Z,46.40
2017-09-24T08:29:12.570Z,49.77
2017-09-24T08:31:39.980Z,45.10
2017-09-24T08:34:07.393Z,42.17
2017-09-24T08:36:34.787Z,37.60
2017-09-24T08:39:02.184Z,40.93
2017-09-24T08:41:29.580Z,39.93
2017-09-24T08:43:57.006Z,36.00
2017-09-24T08:46:24.412Z,37.47
2017-09-24T08:48:51.802Z,39.73
2017-09-24T08:51:19.198Z,40.53
2017-09-24T08:53:46.595Z,43.03
2017-09-24T08:56:14.003Z,36.67
2017-09-24T08:58:41.395Z,39.83
2017-09-24T09:01:08.814Z,35.07
2017-09-24T09:03:36.219Z,33.40
2017-09-24T09:06:03.626Z,32.13
2017-09-24T09:08:31.022Z,33.13
2017-09-24T09:10:58.426Z,35.50
2017-09-24T09:13:25.827Z,40.07
2017-09-24T09:15:53.233Z,37.10
2017-09-24T09:18:20.618Z,28.20
2017-09-24T09:20:48.022Z,31.20
2017-09-24T09:23:15.430Z,30.73
2017-09-24T09:25:42.825Z,26.20
2017-09-24T09:28:10.230Z,29.87
2017-09-24T09:30:37.622Z,30.17
2017-09-24T09:33:16.866Z,42.70
2017-09-24T09:35:44.266Z,30.57
2017-09-24T09:38:11.667Z,29.60
2017-09-24T09:40:39.067Z,39.93
2017-09-24T09:43:06.491Z,31.87
2017-09-24T09:45:45.762Z,36.10
2017-09-24T09:48:13.165Z,37.73
2017-09-24T09:50:40.570Z,34.30
2017-09-24T09:53:07.984Z,38.47
2017-09-24T09:55:35.385Z,31.53
2017-09-24T09:58:02.778Z,44.83
2017-09-24T10:00:30.187Z,42.50
2017-09-24T10:02:57.608Z,38.03
2017-09-24T10:05:25.002Z,37.70
2017-09-24T10:08:04.218Z,42.30
2017-09-24T10:10:31.623Z,43.47
2017-09-24T10:12:59.019Z,37.97
2017-09-24T10:15:26.418Z,46.13
2017-09-24T10:17:53.834Z,41.27
2017-09-24T10:20:21.227Z,46.73
2017-09-24T10:22:48.622Z,49.47
2017-09-24T10:25:16.027Z,34.40
2017-09-24T10:27:43.441Z,39.07
2017-09-24T10:30:22.726Z,38.63
2017-09-24T10:32:50.123Z,56.10
2017-09-24T10:35:17.525Z,44.40
2017-09-24T10:37:44.918Z,56.43
2017-09-24T10:40:12.327Z,49.27
2017-09-24T10:42:39.723Z,47.57
2017-09-24T10:45:07.134Z,52.47
2017-09-24T10:47:34.530Z,54.10
2017-09-24T10:50:01.938Z,49.73
2017-09-24T10:52:29.346Z,45.33
2017-09-24T10:54:56.746Z,48.77
2017-09-24T10:57:24.135Z,48.30
2017-09-24T10:59:51.591Z,53.60
2017-09-24T11:02:18.986Z,51.50
2017-09-24T11:04:46.390Z,51.70
2017-09-24T11:07:13.791Z,55.93
2017-09-24T11:09:41.262Z,47.90
2017-09-24T11:12:08.662Z,48.70
2017-09-24T11:14:36.058Z,46.47
2017-09-24T11:17:03.454Z,52.07
2017-09-24T11:19:30.860Z,46.47
2017-09-24T11:21:58.275Z,47.93
2017-09-24T11:24:25.699Z,53.60
2017-09-24T11:26:53.094Z,60.67
2017-09-24T11:29:20.483Z,47.97
2017-09-24T11:31:47.886Z,42.93
2017-09-24T11:34:15.282Z,48.40
2017-09-24T11:36:42.683Z,45.70
2017-09-24T11:39:10.083Z,51.13
2017-09-24T11:41:37.482Z,46.03
2017-09-24T11:44:04.870Z,43.17
2017-09-24T11:46:32.281Z,38.10
2017-09-24T11:48:59.667Z,36.63
2017-09-24T11:51:27.070Z,37.10
2017-09-24T11:53:54.462Z,35.27
2017-09-24T11:56:21.876Z,49.13
2017-09-24T11:58:49.279Z,38.53
2017-09-24T12:01:16.679Z,40.57
2017-09-24T12:03:44.079Z,30.80
2017-09-24T12:06:11.478Z,43.70
2017-09-24T12:08:38.878Z,34.03
2017-09-24T12:11:06.283Z,34.63
2017-09-24T12:13:33.684Z,33.13
2017-09-24T12:16:01.093Z,33.30
2017-09-24T12:18:28.492Z,40.97
2017-09-24T12:20:55.887Z,42.33
2017-09-24T12:23:23.294Z,35.50
2017-09-24T12:25:50.687Z,37.97
2017-09-24T12:28:18.095Z,39.43
2017-09-24T12:30:45.608Z,40.70
2017-09-24T12:33:13.010Z,38.87
2017-09-24T12:35:40.406Z,37.73
2017-09-24T12:38:07.807Z,34.37
2017-09-24T12:40:35.211Z,34.90
2017-09-24T12:43:02.612Z,35.00
2017-09-24T12:45:30.007Z,44.67
2017-09-24T12:47:57.435Z,38.23
2017-09-24T12:50:24.839Z,30.63
2017-09-24T12:52:52.246Z,27.40
2017-09-24T12:55:19.638Z,29.53
2017-09-24T12:57:47.038Z,28.50
2017-09-24T13:00:14.434Z,31.47
2017-09-24T13:02:41.846Z,28.90
2017-09-24T13:05:09.255Z,36.87
2017-09-24T13:07:36.647Z,29.23
2017-09-24T13:10:04.059Z,24.90
2017-09-24T13:12:31.462Z,31.77
2017-09-24T13:14:58.866Z,21.93
2017-09-24T13:17:26.268Z,24.37
2017-09-24T13:19:53.670Z,26.07
2017-09-24T13:22:21.122Z,28.20
2017-09-24T13:24:48.522Z,26.80
2017-09-24T13:27:15.916Z,23.27
2017-09-24T13:29:43.395Z,29.70
2017-09-24T13:32:10.787Z,24.33
2017-09-24T13:34:38.191Z,27.00
2017-09-24T13:37:05.587Z,26.40
2017-09-24T13:39:32.988Z,24.77
2017-09-24T13:42:00.390Z,26.40
2017-09-24T13:44:27.790Z,21.20
2017-09-24T13:46:55.196Z,24.90
2017-09-24T13:49:22.603Z,25.03
2017-09-24T13:51:50.004Z,26.57
2017-09-24T13:54:17.451Z,21.33
2017-09-24T13:56:44.854Z,19.80
2017-09-24T13:59:12.251Z,24.40
2017-09-24T14:01:39.656Z,24.17
2017-09-24T14:04:07.051Z,26.10
2017-09-24T14:06:34.458Z,24.70
2017-09-24T14:09:01.850Z,23.03
2017-09-24T14:11:29.251Z,21.33
2017-09-24T14:13:56.642Z,20.57
2017-09-24T14:16:24.045Z,23.90
2017-09-24T14:18:51.439Z,23.53
2017-09-24T14:21:18.847Z,22.37
2017-09-24T14:23:46.243Z,28.10
2017-09-24T14:26:13.644Z,22.77
2017-09-24T14:28:41.042Z,21.43
2017-09-24T14:31:08.443Z,25.93
2017-09-24T14:33:35.840Z,22.43
2017-09-24T14:36:03.242Z,24.53
2017-09-24T14:38:30.643Z,21.67
2017-09-24T14:40:58.048Z,25.27
2017-09-24T14:43:25.458Z,22.43
2017-09-24T14:45:52.862Z,23.60
2017-09-24T14:48:20.272Z,23.67
2017-09-24T14:50:47.662Z,24.77
2017-09-24T14:53:15.068Z,23.20
2017-09-24T14:55:42.469Z,27.07
2017-09-24T14:58:09.867Z,21.97
2017-09-24T15:00:37.266Z,21.30
2017-09-24T15:03:04.667Z,22.57
2017-09-24T15:05:32.058Z,19.63
2017-09-24T15:07:59.463Z,21.57
2017-09-24T15:10:26.862Z,21.40
2017-09-24T15:12:54.258Z,22.03
2017-09-24T15:15:21.663Z,23.00
2017-09-24T15:17:49.090Z,20.27
2017-09-24T15:20:16.483Z,24.40
2017-09-24T15:22:43.899Z,20.13
2017-09-24T15:25:11.299Z,20.87
2017-09-24T15:27:38.703Z,22.60
2017-09-24T15:30:06.118Z,22.40
2017-09-24T15:32:33.527Z,19.93
2017-09-24T15:35:00.919Z,18.00
2017-09-24T15:37:28.396Z,19.90
2017-09-24T15:39:55.795Z,16.33
2017-09-24T15:42:23.298Z,22.63
2017-09-24T15:44:50.695Z,17.10
2017-09-24T15:47:18.103Z,17.57
2017-09-24T15:49:45.494Z,19.10
2017-09-24T15:52:12.894Z,18.90
2017-09-24T15:54:40.304Z,17.93
2017-09-24T15:57:07.696Z,15.07
2017-09-24T15:59:35.191Z,20.37
2017-09-24T16:02:02.650Z,17.90
2017-09-24T16:04:30.062Z,17.23
2017-09-24T16:06:57.564Z,24.37
2017-09-24T16:09:24.977Z,17.37
2017-09-24T16:11:52.367Z,21.20
2017-09-24T16:14:19.777Z,24.33
2017-09-24T16:16:47.170Z,19.57
2017-09-24T16:19:14.584Z,28.47
2017-09-24T16:21:41.975Z,20.60
2017-09-24T16:24:09.375Z,26.47
2017-09-24T16:26:36.767Z,26.60
2017-09-24T16:29:04.173Z,24.23
2017-09-24T16:31:31.581Z,21.33
2017-09-24T16:33:58.985Z,27.03
2017-09-24T16:36:26.376Z,34.63
2017-09-24T16:38:53.782Z,29.53
2017-09-24T16:41:21.174Z,25.43
2017-09-24T16:43:48.575Z,24.77
2017-09-24T16:46:15.982Z,21.43
2017-09-24T16:48:43.374Z,20.40
2017-09-24T16:51:10.775Z,31.33
2017-09-24T16:53:38.199Z,22.00
2017-09-24T16:56:05.655Z,25.70
2017-09-24T16:58:33.139Z,20.00
2017-09-24T17:01:00.595Z,23.27
2017-09-24T17:03:28.004Z,22.77
2017-09-24T17:05:57.419Z,24.03
2017-09-24T17:08:24.816Z,22.53
2017-09-24T17:10:52.215Z,23.90
2017-09-24T17:13:19.614Z,21.20
2017-09-24T17:15:47.011Z,22.40
2017-09-24T17:18:14.405Z,22.00
2017-09-24T17:20:41.807Z,22.80
2017-09-24T17:23:09.199Z,26.97
2017-09-24T17:25:36.598Z,25.43
2017-09-24T17:28:03.998Z,37.37
2017-09-24T17:30:31.399Z,28.60
2017-09-24T17:32:58.799Z,43.73
2017-09-24T17:35:26.204Z,37.13
2017-09-24T17:37:53.595Z,34.90
2017-09-24T17:40:21.013Z,30.33
2017-09-24T17:42:48.415Z,39.47
2017-09-24T17:45:15.814Z,35.20
2017-09-24T17:47:43.216Z,34.70
2017-09-24T17:50:10.612Z,40.50
2017-09-24T17:52:38.023Z,34.03
2017-09-24T17:55:05.424Z,31.10
2017-09-24T17:57:32.938Z,40.53
2017-09-24T18:00:00.356Z,33.10
2017-09-24T18:02:27.839Z,35.40
2017-09-24T18:04:55.235Z,32.00
2017-09-24T18:07:22.626Z,28.80
2017-09-24T18:09:50.018Z,37.27
2017-09-24T18:12:17.426Z,35.40
2017-09-24T18:14:44.818Z,37.43
2017-09-24T18:17:12.219Z,37.40
2017-09-24T18:19:39.619Z,39.33
2017-09-24T18:22:07.022Z,42.60
2017-09-24T18:24:34.432Z,33.70
2017-09-24T18:27:01.843Z,36.37
2017-09-24T18:29:29.235Z,29.60
2017-09-24T18:31:56.638Z,31.43
2017-09-24T18:34:24.054Z,27.77
2017-09-24T18:36:51.467Z,34.57
2017-09-24T18:39:18.970Z,31.07
2017-09-24T18:41:46.368Z,28.53
2017-09-24T18:44:13.786Z,26.00
2017-09-24T18:46:41.188Z,24.63
2017-09-24T18:49:08.613Z,22.60
2017-09-24T18:51:36.006Z,18.70
2017-09-24T18:54:03.510Z,42.00
2017-09-24T18:56:30.962Z,25.80
2017-09-24T18:58:58.362Z,33.57
2017-09-24T19:01:25.759Z,27.80
2017-09-24T19:03:53.159Z,44.57
2017-09-24T19:06:20.554Z,42.67
2017-09-24T19:08:47.959Z,47.43
2017-09-24T19:11:15.347Z,34.23
2017-09-24T19:13:42.854Z,36.20
2017-09-24T19:16:10.328Z,23.37
2017-09-24T19:18:37.770Z,26.73
2017-09-24T19:21:05.170Z,26.40
2017-09-24T19:23:32.562Z,24.70
2017-09-24T19:25:59.962Z,23.53
2017-09-24T19:28:27.367Z,26.10
2017-09-24T19:30:54.774Z,26.90
2017-09-24T19:33:22.179Z,22.13
2017-09-24T19:35:49.579Z,28.87
2017-09-24T19:38:16.981Z,26.50
2017-09-24T19:40:44.483Z,37.93
2017-09-24T19:43:11.875Z,31.27
2017-09-24T19:45:39.284Z,42.20
2017-09-24T19:48:06.679Z,57.67
2017-09-24T19:50:34.082Z,40.10
2017-09-24T19:53:01.466Z,35.57
2017-09-24T19:55:28.879Z,41.07
2017-09-24T19:57:56.279Z,36.50
2017-09-24T20:00:23.686Z,40.43
2017-09-24T20:02:51.086Z,28.80
2017-09-24T20:05:18.478Z,30.23
2017-09-24T20:07:45.875Z,33.50
2017-09-24T20:10:13.279Z,28.93
2017-09-24T20:12:40.674Z,42.33
2017-09-24T20:15:08.078Z,29.73
2017-09-24T20:17:35.479Z,39.70
2017-09-24T20:20:02.975Z,48.00
2017-09-24T20:22:30.387Z,52.63
2017-09-24T20:24:57.784Z,32.63
2017-09-24T20:27:25.184Z,44.13
2017-09-24T20:29:52.692Z,36.77
2017-09-24T20:32:20.088Z,25.13
2017-09-24T20:34:47.486Z,43.50
2017-09-24T20:37:14.897Z,29.30
2017-09-24T20:39:42.318Z,65.47
2017-09-24T20:42:09.710Z,33.57
2017-09-24T20:44:37.102Z,36.17
2017-09-24T20:47:04.507Z,35.57
2017-09-24T20:49:31.903Z,49.33
2017-09-24T20:51:59.307Z,44.93
2017-09-24T20:54:26.704Z,63.00
2017-09-24T20:56:54.198Z,67.97
2017-09-24T20:59:21.599Z,81.77
2017-09-24T21:01:49.078Z,88.50
2017-09-24T21:04:16.481Z,46.90
2017-09-24T21:06:43.875Z,77.87
2017-09-24T21:09:11.273Z,88.03
2017-09-24T21:11:38.670Z,69.23
2017-09-24T21:14:06.067Z,84.87
2017-09-24T21:16:33.466Z,79.83
2017-09-24T21:19:00.851Z,86.70
2017-09-24T21:21:28.268Z,69.27
2017-09-24T21:23:55.726Z,58.70
2017-09-24T21:26:23.132Z,95.83
2017-09-24T21:28:50.622Z,80.50
2017-09-24T21:31:18.040Z,63.70
2017-09-24T21:33:45.439Z,63.10
2017-09-24T21:36:12.835Z,95.53
2017-09-24T21:38:40.238Z,59.47
2017-09-24T21:41:07.634Z,63.10
2017-09-24T21:43:35.059Z,67.33
2017-09-24T21:46:02.455Z,75.80
2017-09-24T21:48:29.869Z,50.67
2017-09-24T21:50:57.270Z,74.07
2017-09-24T21:53:24.680Z,71.27
2017-09-24T21:55:52.139Z,87.90
2017-09-24T21:58:19.542Z,51.80
2017-09-24T22:00:47.051Z,90.77
2017-09-24T22:03:14.470Z,61.17
2017-09-24T22:05:41.963Z,58.23
2017-09-24T22:08:09.363Z,81.47
2017-09-24T22:10:36.755Z,78.87
2017-09-24T22:13:04.155Z,55.00
2017-09-24T22:15:31.555Z,71.20
2017-09-24T22:17:58.958Z,84.70
2017-09-24T22:20:26.360Z,68.20
2017-09-24T22:22:53.762Z,69.63
2017-09-24T22:25:21.158Z,55.47
2017-09-24T22:27:48.632Z,115.10
2017-09-24T22:30:16.035Z,105.17
2017-09-24T22:32:43.434Z,104.57
2017-09-24T22:35:10.835Z,108.83
2017-09-24T22:37:38.247Z,99.03
2017-09-24T22:40:05.651Z,112.90
2017-09-24T22:42:33.043Z,99.30
2017-09-24T22:45:00.447Z,84.73
2017-09-24T22:47:27.842Z,72.27
2017-09-24T22:49:55.243Z,92.87
2017-09-24T22:52:22.642Z,61.00
2017-09-24T22:54:50.038Z,78.57
2017-09-24T22:57:17.446Z,82.60
2017-09-24T22:59:44.855Z,64.57
2017-09-24T23:02:12.256Z,64.37
2017-09-24T23:04:39.760Z,64.93
2017-09-24T23:07:07.150Z,91.93
2017-09-24T23:09:34.559Z,83.83
2017-09-24T23:12:01.984Z,74.00
2017-09-24T23:14:29.383Z,81.97
2017-09-24T23:16:56.778Z,57.00
2017-09-24T23:19:24.187Z,52.23
2017-09-24T23:21:51.590Z,42.10
2017-09-24T23:24:18.997Z,62.07
2017-09-24T23:26:46.392Z,53.50
2017-09-24T23:29:13.834Z,63.37
2017-09-24T23:31:41.238Z,63.37
2017-09-24T23:34:08.640Z,86.63
2017-09-24T23:36:36.038Z,54.70
2017-09-24T23:39:03.454Z,44.80
2017-09-24T23:41:30.863Z,48.43
2017-09-24T23:43:58.263Z,45.63
2017-09-24T23:46:25.667Z,62.87
2017-09-24T23:48:53.075Z,79.53
2017-09-24T23:51:20.471Z,41.97
2017-09-24T23:53:47.874Z,44.67
2017-09-24T23:56:15.278Z,51.10
2017-09-24T23:58:42.670Z,47.03
